Time;durP1;ratioP1;P1;durP2;ratioP2;P2;SDS_P1;SDS_P2;PMS_P1;PMS_P2;Temp;Humidity;BMP_temperature;BMP_pressure;BME280_temperature;BME280_humidity;BME280_pressure;Samples;Min_cycle;Max_cycle;Signal;HPM_P1;HPM_P2
2023/05/19 00:01:38;;;;;;;2.10;1.73;;;;;;;12.31;58.91;102822.25;6227776;28;20232;-67
2023/05/19 00:05:00;;;;;;;2.60;2.40;;;;;;;12.20;59.19;102818.50;6241187;28;20240;-67
2023/05/19 00:08:23;;;;;;;2.97;2.17;;;;;;;12.24;59.82;102820.03;6240197;28;20309;-69
2023/05/19 00:11:45;;;;;;;3.77;3.37;;;;;;;12.26;59.26;102824.38;6224498;28;20228;-67
2023/05/19 00:15:09;;;;;;;3.97;2.63;;;;;;;12.14;58.94;102825.16;6221488;28;20236;-67
2023/05/19 00:18:30;;;;;;;4.33;2.87;;;;;;;12.31;59.56;102819.53;6229924;28;20228;-68
2023/05/19 00:21:50;;;;;;;3.60;3.30;;;;;;;12.22;59.79;102816.56;6240260;28;20232;-68
2023/05/19 00:25:11;;;;;;;7.10;2.57;;;;;;;12.14;59.40;102817.03;6235550;28;20323;-67
2023/05/19 00:28:32;;;;;;;5.10;2.57;;;;;;;12.06;59.60;102824.78;6239375;28;20235;-67
2023/05/19 00:31:54;;;;;;;2.80;2.60;;;;;;;12.03;59.63;102819.59;6237151;28;20260;-67
2023/05/19 00:35:16;;;;;;;2.80;2.57;;;;;;;12.01;59.17;102827.78;6237740;28;20252;-67
2023/05/19 00:38:37;;;;;;;2.90;2.13;;;;;;;12.04;59.74;102821.31;6219566;28;20224;-68
2023/05/19 00:41:58;;;;;;;2.70;2.47;;;;;;;11.89;60.02;102815.03;6224788;28;20798;-68
2023/05/19 00:45:19;;;;;;;3.60;2.60;;;;;;;11.96;59.91;102810.13;6243517;28;20677;-68
2023/05/19 00:48:43;;;;;;;4.23;2.40;;;;;;;11.89;59.46;102814.19;6225515;28;20696;-68
2023/05/19 00:52:06;;;;;;;4.10;2.67;;;;;;;11.71;60.95;102804.53;6219667;28;20742;-68
2023/05/19 00:55:30;;;;;;;9.90;3.07;;;;;;;11.74;60.12;102804.34;6219151;28;20228;-68
2023/05/19 00:58:51;;;;;;;4.80;3.40;;;;;;;11.78;60.71;102798.66;6231900;28;20314;-68
2023/05/19 01:02:13;;;;;;;6.97;2.97;;;;;;;11.89;59.65;102808.78;6229286;28;20236;-68
2023/05/19 01:05:36;;;;;;;5.77;2.67;;;;;;;11.78;59.72;102806.78;6220960;28;20233;-68
2023/05/19 01:08:57;;;;;;;2.13;1.90;;;;;;;11.83;59.99;102807.31;6228494;28;20232;-68
2023/05/19 01:12:18;;;;;;;2.97;2.60;;;;;;;11.75;60.95;102804.25;6234828;28;20740;-67
2023/05/19 01:15:52;;;;;;;3.90;2.90;;;;;;;11.76;61.27;102816.81;6231889;28;20319;-68
2023/05/19 01:19:29;;;;;;;2.00;1.73;;;;;;;11.67;60.69;102811.97;6225143;28;20231;-67
2023/05/19 01:23:17;;;;;;;3.00;2.10;;;;;;;11.74;61.31;102813.34;6229897;28;20235;-68
2023/05/19 01:27:00;;;;;;;2.33;2.13;;;;;;;11.68;61.07;102819.09;6244163;28;20263;-68
2023/05/19 01:30:26;;;;;;;2.20;2.00;;;;;;;11.61;61.74;102808.75;6214821;28;20228;-68
2023/05/19 01:33:49;;;;;;;4.70;2.30;;;;;;;11.60;61.07;102815.97;6222854;28;20224;-68
2023/05/19 01:37:11;;;;;;;1.93;1.60;;;;;;;11.63;61.31;102815.78;6230564;28;20228;-68
2023/05/19 01:40:34;;;;;;;3.07;1.47;;;;;;;11.40;61.59;102815.47;6235781;28;20351;-67
2023/05/19 01:43:55;;;;;;;3.17;2.30;;;;;;;11.30;61.72;102815.16;6235966;28;20239;-67
2023/05/19 01:47:18;;;;;;;2.47;2.20;;;;;;;11.45;61.83;102808.84;6234464;28;20689;-67
2023/05/19 01:50:39;;;;;;;3.40;2.93;;;;;;;11.38;61.71;102811.97;6237797;28;20243;-68
2023/05/19 01:54:00;;;;;;;4.30;1.87;;;;;;;11.34;62.51;102826.63;6240776;28;20243;-67
2023/05/19 01:57:32;;;;;;;4.13;2.10;;;;;;;11.14;62.56;102826.00;6239345;28;20235;-67
2023/05/19 02:00:58;;;;;;;1.77;1.43;;;;;;;11.22;62.79;102837.22;6225780;28;20240;-67
2023/05/19 02:04:29;;;;;;;3.00;1.90;;;;;;;11.18;63.50;102829.41;6222470;28;20323;-69
2023/05/19 02:07:58;;;;;;;4.00;2.30;;;;;;;11.31;63.36;102835.78;6233324;28;20648;-67
2023/05/19 02:11:25;;;;;;;2.53;2.30;;;;;;;11.22;63.14;102833.66;6243389;28;20568;-67
2023/05/19 02:14:52;;;;;;;2.33;2.10;;;;;;;11.20;63.44;102841.00;6242297;28;20236;-68
2023/05/19 02:18:16;;;;;;;2.97;2.07;;;;;;;11.16;64.05;102828.59;6206867;28;20238;-67
2023/05/19 02:21:40;;;;;;;5.67;3.03;;;;;;;11.17;63.44;102823.13;6228724;28;20236;-67
2023/05/19 02:25:00;;;;;;;3.67;2.60;;;;;;;11.14;63.87;102826.00;6247732;28;20244;-66
2023/05/19 02:28:21;;;;;;;3.50;3.20;;;;;;;11.06;64.33;102820.19;6242228;28;20258;-67
2023/05/19 02:31:43;;;;;;;2.70;1.97;;;;;;;10.99;64.08;102818.81;6245840;28;20224;-68
2023/05/19 02:35:04;;;;;;;3.80;1.90;;;;;;;11.04;64.15;102813.16;6234386;28;20233;-67
2023/05/19 02:38:27;;;;;;;7.20;2.30;;;;;;;11.11;64.24;102809.13;6232408;28;20224;-67
2023/05/19 02:41:48;;;;;;;3.37;2.17;;;;;;;11.19;64.59;102815.81;6247921;28;20221;-67
2023/05/19 02:45:09;;;;;;;2.30;2.10;;;;;;;11.16;64.65;102813.28;6231481;28;20319;-67
2023/05/19 02:48:30;;;;;;;3.07;2.20;;;;;;;11.12;64.90;102800.94;6228721;28;20231;-67
2023/05/19 02:51:50;;;;;;;3.27;1.93;;;;;;;11.15;65.41;102805.28;6256947;28;20820;-67
2023/05/19 02:55:15;;;;;;;1.90;1.80;;;;;;;11.35;64.98;102801.38;6227851;28;20229;-66
2023/05/19 02:58:36;;;;;;;2.97;2.00;;;;;;;11.25;65.52;102811.88;6226897;28;20263;-68
2023/05/19 03:02:00;;;;;;;3.10;1.93;;;;;;;11.30;64.78;102809.75;6243255;28;20252;-68
2023/05/19 03:05:21;;;;;;;1.97;1.80;;;;;;;11.33;65.30;102798.75;6215780;28;20240;-68
2023/05/19 03:08:42;;;;;;;2.87;2.67;;;;;;;11.35;65.05;102798.69;6238807;28;20228;-67
2023/05/19 03:12:06;;;;;;;2.10;1.90;;;;;;;11.24;65.18;102796.66;6219707;28;20236;-68
2023/05/19 03:15:27;;;;;;;6.20;1.80;;;;;;;11.24;65.82;102799.34;6211413;28;20266;-67
2023/05/19 03:18:48;;;;;;;2.67;2.47;;;;;;;11.25;65.43;102799.25;6240901;28;20224;-67
2023/05/19 03:22:09;;;;;;;4.03;1.83;;;;;;;11.19;66.33;102796.91;6224482;28;20315;-67
2023/05/19 03:25:30;;;;;;;4.90;2.33;;;;;;;11.19;65.57;102794.22;6238199;28;20249;-67
2023/05/19 03:28:53;;;;;;;3.37;1.90;;;;;;;11.22;66.52;102787.78;6225939;28;20315;-67
2023/05/19 03:32:13;;;;;;;2.93;1.80;;;;;;;11.33;65.71;102779.84;6248544;28;20311;-66
2023/05/19 03:35:35;;;;;;;3.33;3.10;;;;;;;11.34;65.98;102778.03;6227928;28;20236;-67
2023/05/19 03:38:56;;;;;;;5.93;1.77;;;;;;;11.44;66.32;102781.91;6237781;28;20236;-68
2023/05/19 03:42:17;;;;;;;3.80;2.07;;;;;;;11.38;66.39;102788.56;6225902;28;20331;-67
2023/05/19 03:45:39;;;;;;;3.87;2.27;;;;;;;11.47;66.67;102790.69;6225935;28;20244;-68
2023/05/19 03:49:20;;;;;;;5.60;2.53;;;;;;;11.45;66.10;102789.94;6246405;28;20235;-68
2023/05/19 03:52:59;;;;;;;4.37;2.90;;;;;;;11.50;66.17;102795.91;6234911;28;20254;-67
2023/05/19 03:56:25;;;;;;;3.40;2.50;;;;;;;11.46;66.12;102794.34;6233314;28;20539;-66
2023/05/19 03:59:46;;;;;;;3.57;2.60;;;;;;;11.53;65.58;102801.13;6242555;28;20236;-67
2023/05/19 04:03:08;;;;;;;5.67;3.70;;;;;;;11.51;66.77;102804.88;6236166;28;20251;-67
2023/05/19 04:06:30;;;;;;;7.33;3.00;;;;;;;11.57;66.17;102794.56;6227169;28;20237;-68
2023/05/19 04:09:51;;;;;;;2.83;2.40;;;;;;;11.75;66.53;102806.94;6229406;28;20887;-67
2023/05/19 04:13:12;;;;;;;3.47;2.63;;;;;;;11.69;65.90;102807.34;6234075;28;20231;-68
2023/05/19 04:16:32;;;;;;;3.43;2.57;;;;;;;11.81;65.59;102811.09;6242707;28;20228;-67
2023/05/19 04:19:55;;;;;;;3.47;2.13;;;;;;;11.75;65.13;102806.94;6244956;28;20224;-68
2023/05/19 04:23:16;;;;;;;8.87;3.40;;;;;;;11.88;65.39;102807.91;6229456;28;20235;-67
2023/05/19 04:26:40;;;;;;;2.10;2.00;;;;;;;11.96;65.21;102816.41;6225099;28;20229;-67
2023/05/19 04:30:02;;;;;;;6.57;3.33;;;;;;;11.96;66.08;102812.81;6241112;28;20228;-67
2023/05/19 04:33:23;;;;;;;3.50;3.27;;;;;;;12.06;65.27;102807.72;6223636;28;20594;-67
2023/05/19 04:36:46;;;;;;;6.63;2.33;;;;;;;11.94;65.71;102812.94;6233651;28;20236;-67
2023/05/19 04:40:09;;;;;;;2.87;2.63;;;;;;;12.03;65.73;102808.78;6231077;28;20327;-67
2023/05/19 04:43:31;;;;;;;4.60;2.80;;;;;;;12.12;65.65;102813.56;6212608;28;20231;-67
2023/05/19 04:46:53;;;;;;;4.33;2.47;;;;;;;12.19;65.57;102808.63;6245735;28;20244;-67
2023/05/19 04:50:15;;;;;;;5.63;3.00;;;;;;;12.29;64.68;102816.06;6232475;28;20220;-67
2023/05/19 04:53:39;;;;;;;2.87;2.40;;;;;;;12.42;65.00;102817.00;6231965;28;20231;-68
2023/05/19 04:57:01;;;;;;;3.77;2.30;;;;;;;12.19;64.39;102812.22;6221654;28;20613;-67
2023/05/19 05:00:24;;;;;;;4.40;2.30;;;;;;;12.03;65.56;102808.78;6216008;28;21008;-70
2023/05/19 05:03:53;;;;;;;5.43;3.03;;;;;;;12.07;65.40;102806.72;6223504;28;20230;-67
2023/05/19 05:07:15;;;;;;;3.87;2.30;;;;;;;12.20;65.12;102811.28;6219572;28;20292;-67
2023/05/19 05:10:37;;;;;;;3.53;2.30;;;;;;;12.26;65.30;102815.41;6221965;28;20247;-68
2023/05/19 05:14:00;;;;;;;2.93;2.73;;;;;;;12.42;64.38;102814.28;6222691;28;20224;-68
2023/05/19 05:17:24;;;;;;;3.43;1.73;;;;;;;12.49;64.49;102807.53;6209517;28;20224;-67
2023/05/19 05:20:47;;;;;;;2.07;1.87;;;;;;;12.29;65.06;102824.16;6235986;28;20232;-68
2023/05/19 05:24:10;;;;;;;2.43;2.33;;;;;;;12.51;64.38;102819.13;6222549;28;20236;-68
2023/05/19 05:27:32;;;;;;;2.10;1.70;;;;;;;12.60;64.68;102815.78;6218206;28;20232;-67
2023/05/19 05:30:55;;;;;;;3.57;2.77;;;;;;;12.73;64.26;102808.59;6238091;28;20237;-66
2023/05/19 05:34:16;;;;;;;4.63;2.37;;;;;;;12.69;63.91;102809.78;6251507;28;20628;-68
2023/05/19 05:37:37;;;;;;;4.40;2.47;;;;;;;12.80;63.56;102811.75;6214366;28;22483;-67
2023/05/19 05:40:58;;;;;;;4.43;1.87;;;;;;;12.87;63.29;102809.50;6247634;28;20240;-66
2023/05/19 05:44:20;;;;;;;1.77;1.67;;;;;;;13.13;62.98;102808.63;6224556;28;20232;-67
2023/05/19 05:47:42;;;;;;;5.53;2.20;;;;;;;13.25;62.66;102813.19;6212584;28;20234;-67
2023/05/19 05:51:04;;;;;;;3.67;2.80;;;;;;;13.32;61.95;102814.50;6222632;28;20232;-67
2023/05/19 05:54:26;;;;;;;4.27;2.70;;;;;;;13.49;61.79;102817.78;6218265;28;20345;-68
2023/05/19 05:57:47;;;;;;;3.53;2.63;;;;;;;13.61;61.29;102816.06;6209685;28;20591;-67
2023/05/19 06:01:11;;;;;;;3.33;2.90;;;;;;;13.78;60.91;102821.16;6229365;28;20236;-67
2023/05/19 06:04:32;;;;;;;2.80;2.57;;;;;;;13.98;60.50;102817.88;6217771;28;20228;-69
2023/05/19 06:07:53;;;;;;;3.70;2.07;;;;;;;13.93;60.46;102817.34;6215223;28;20267;-68
2023/05/19 06:11:18;;;;;;;2.30;1.90;;;;;;;14.02;59.82;102821.22;6231095;28;20228;-68
2023/05/19 06:14:39;;;;;;;5.27;2.53;;;;;;;14.01;59.75;102820.38;6207515;28;20224;-68
2023/05/19 06:18:24;;;;;;;2.73;1.67;;;;;;;13.61;59.88;102829.59;6206821;28;20593;-67
2023/05/19 06:21:46;;;;;;;5.10;2.17;;;;;;;13.87;59.95;102816.91;6193410;28;20232;-67
2023/05/19 06:25:09;;;;;;;3.73;2.80;;;;;;;14.15;59.37;102824.78;6226748;28;20232;-68
2023/05/19 06:28:30;;;;;;;2.40;2.13;;;;;;;14.43;58.88;102821.84;6216460;28;20688;-68
2023/05/19 06:31:51;;;;;;;1.60;1.50;;;;;;;14.55;58.14;102825.47;6226256;28;20270;-68
2023/05/19 06:35:14;;;;;;;2.20;1.73;;;;;;;14.77;57.78;102820.19;6239970;28;20225;-69
2023/05/19 06:38:35;;;;;;;2.07;1.83;;;;;;;14.57;57.07;102824.38;6216101;28;20662;-68
2023/05/19 06:41:56;;;;;;;3.80;1.93;;;;;;;14.44;57.54;102823.53;6224711;28;20232;-67
2023/05/19 06:45:36;;;;;;;2.13;1.67;;;;;;;14.14;57.44;102823.06;6243543;28;20322;-67
2023/05/19 06:48:59;;;;;;;3.87;1.53;;;;;;;14.05;58.10;102819.16;6229292;28;20236;-67
2023/05/19 06:52:23;;;;;;;2.57;2.13;;;;;;;14.20;58.24;102812.63;6222949;28;20224;-68
2023/05/19 06:55:45;;;;;;;7.37;1.53;;;;;;;14.61;58.12;102823.16;6226942;28;20235;-68
2023/05/19 06:59:07;;;;;;;4.53;1.87;;;;;;;14.77;57.86;102822.91;6209380;28;20236;-68
2023/05/19 07:02:30;;;;;;;4.20;1.43;;;;;;;14.89;57.22;102827.41;6212826;28;20244;-68
2023/05/19 07:05:52;;;;;;;4.43;2.30;;;;;;;15.03;56.88;102819.06;6228352;28;20228;-68
2023/05/19 07:09:14;;;;;;;2.63;2.43;;;;;;;15.36;56.71;102823.72;6219518;28;20225;-67
2023/05/19 07:12:35;;;;;;;6.70;2.53;;;;;;;15.28;56.52;102816.19;6210763;28;20232;-68
2023/05/19 07:15:56;;;;;;;2.87;1.43;;;;;;;15.23;56.53;102828.41;6236847;28;20220;-68
2023/05/19 07:19:18;;;;;;;6.00;2.80;;;;;;;15.40;56.70;102820.66;6216818;28;20350;-67
2023/05/19 07:22:39;;;;;;;8.50;4.10;;;;;;;15.84;55.26;102817.19;6217404;28;20247;-69
2023/05/19 07:26:02;;;;;;;4.30;2.27;;;;;;;15.71;55.34;102824.56;6236886;28;20221;-66
2023/05/19 07:29:23;;;;;;;6.60;2.83;;;;;;;15.98;55.56;102817.81;6241231;28;20231;-68
2023/05/19 07:32:44;;;;;;;4.30;2.00;;;;;;;15.97;55.34;102824.25;6230980;28;20345;-68
2023/05/19 07:36:05;;;;;;;2.63;1.83;;;;;;;16.11;55.29;102820.41;6245370;28;20514;-67
2023/05/19 07:39:28;;;;;;;2.57;1.43;;;;;;;16.34;55.57;102819.38;6235956;28;20220;-68
2023/05/19 07:42:50;;;;;;;2.03;1.90;;;;;;;16.24;54.96;102812.97;6218835;28;20244;-67
2023/05/19 07:46:11;;;;;;;4.43;1.83;;;;;;;16.27;55.03;102811.88;6238590;28;20225;-68
2023/05/19 07:49:32;;;;;;;2.10;1.90;;;;;;;16.72;54.12;102808.94;6229388;28;20235;-68
2023/05/19 07:52:53;;;;;;;4.40;2.07;;;;;;;16.73;53.59;102812.50;6226555;28;20235;-67
2023/05/19 07:56:13;;;;;;;1.50;1.40;;;;;;;17.44;52.96;102809.97;6233446;28;20539;-68
2023/05/19 07:59:36;;;;;;;3.20;1.80;;;;;;;17.74;52.26;102808.31;6235585;28;20233;-68
2023/05/19 08:02:57;;;;;;;4.40;2.20;;;;;;;17.48;51.66;102811.41;6219323;28;20228;-68
2023/05/19 08:06:18;;;;;;;3.03;1.70;;;;;;;17.30;51.43;102810.28;6233151;28;20491;-67
2023/05/19 08:09:39;;;;;;;3.40;1.93;;;;;;;17.21;51.88;102793.88;6237622;28;20318;-67
2023/05/19 08:12:59;;;;;;;3.67;1.63;;;;;;;17.50;51.50;102801.28;6226099;28;20267;-68
2023/05/19 08:16:21;;;;;;;3.87;1.93;;;;;;;17.97;50.99;102790.75;6248249;28;20228;-68
2023/05/19 08:19:42;;;;;;;3.40;1.80;;;;;;;18.26;49.96;102799.91;6239830;28;20247;-67
2023/05/19 08:23:03;;;;;;;4.87;2.40;;;;;;;18.18;49.63;102799.75;6229800;28;20244;-68
2023/05/19 08:26:25;;;;;;;1.63;1.53;;;;;;;18.12;49.50;102800.31;6230369;28;20591;-68
2023/05/19 08:29:45;;;;;;;4.93;1.97;;;;;;;18.13;49.28;102796.56;6249802;28;20236;-67
2023/05/19 08:33:08;;;;;;;2.33;1.73;;;;;;;18.30;49.07;102798.63;6222281;28;20315;-68
2023/05/19 08:36:29;;;;;;;3.10;1.67;;;;;;;18.75;48.88;102801.78;6234479;28;20324;-68
2023/05/19 08:39:50;;;;;;;2.57;1.20;;;;;;;18.80;48.36;102799.47;6240037;28;20229;-67
2023/05/19 08:43:11;;;;;;;3.87;2.13;;;;;;;18.74;48.63;102791.84;6230298;28;20601;-67
2023/05/19 08:46:32;;;;;;;2.57;1.67;;;;;;;18.80;48.42;102780.34;6240247;28;20236;-68
2023/05/19 08:50:06;;;;;;;5.30;1.93;;;;;;;18.85;48.20;102787.13;6240905;28;20232;-67
2023/05/19 08:53:32;;;;;;;5.10;2.47;;;;;;;18.75;47.79;102779.94;6223116;28;20227;-67
2023/05/19 08:56:53;;;;;;;7.05;3.08;;;;;;;18.91;47.99;102770.16;6238251;28;20244;-68
2023/05/19 09:00:16;;;;;;;1.60;1.20;;;;;;;18.97;47.67;102776.91;6237539;28;20232;-67
2023/05/19 09:03:38;;;;;;;1.93;1.73;;;;;;;18.89;46.87;102771.28;6228808;28;20339;-67
2023/05/19 09:07:02;;;;;;;5.82;2.08;;;;;;;19.40;46.93;102762.78;6238319;28;20291;-67
2023/05/19 09:10:23;;;;;;;2.60;2.00;;;;;;;19.27;46.15;102768.53;6240586;28;20228;-67
2023/05/19 09:13:44;;;;;;;4.70;1.90;;;;;;;19.43;46.04;102762.47;6236336;28;20231;-67
2023/05/19 09:17:06;;;;;;;2.58;1.33;;;;;;;19.52;45.81;102762.47;6237378;28;20596;-67
2023/05/19 09:20:30;;;;;;;3.03;1.48;;;;;;;19.70;45.41;102757.94;6230763;28;20657;-68
2023/05/19 09:23:54;;;;;;;2.13;1.67;;;;;;;19.02;45.31;102769.16;6233293;28;20231;-68
2023/05/19 09:27:20;;;;;;;3.47;1.00;;;;;;;19.55;45.47;102767.63;6237476;28;20228;-67
2023/05/19 09:30:42;;;;;;;2.38;1.85;;;;;;;19.43;45.68;102759.75;6225453;28;20236;-67
2023/05/19 09:34:03;;;;;;;2.85;1.10;;;;;;;19.84;44.93;102749.22;6232096;28;20224;-68
2023/05/19 09:37:24;;;;;;;3.58;0.90;;;;;;;19.42;44.44;102753.41;6225144;28;20228;-68
2023/05/19 09:40:48;;;;;;;3.40;1.63;;;;;;;19.86;43.89;102751.81;6249465;28;20228;-67
2023/05/19 09:44:13;;;;;;;4.80;1.73;;;;;;;19.82;43.31;102747.66;6221001;28;20220;-67
2023/05/19 09:47:34;;;;;;;3.17;1.92;;;;;;;19.60;43.71;102745.31;6225096;28;20236;-67
2023/05/19 09:50:56;;;;;;;5.40;1.83;;;;;;;20.26;43.82;102737.81;6241035;28;20229;-67
2023/05/19 09:54:20;;;;;;;3.47;1.90;;;;;;;20.29;43.21;102748.47;6235494;28;20511;-68
2023/05/19 09:57:45;;;;;;;7.03;1.27;;;;;;;20.23;42.67;102749.09;6221624;28;20315;-66
2023/05/19 10:01:06;;;;;;;2.40;1.40;;;;;;;20.18;42.17;102740.41;6236602;28;20241;-67
2023/05/19 10:04:29;;;;;;;2.58;1.98;;;;;;;20.03;41.16;102731.84;6226965;28;20227;-68
2023/05/19 10:07:53;;;;;;;1.75;1.65;;;;;;;19.76;41.65;102729.09;6231198;28;20247;-68
2023/05/19 10:11:16;;;;;;;2.35;2.03;;;;;;;20.41;41.64;102726.19;6231652;28;20259;-68
2023/05/19 10:14:40;;;;;;;2.08;1.00;;;;;;;20.38;42.75;102723.72;6234450;28;20231;-67
2023/05/19 10:18:03;;;;;;;1.98;1.65;;;;;;;20.18;41.72;102713.91;6230233;28;20252;-67
2023/05/19 10:21:24;;;;;;;1.23;0.88;;;;;;;20.53;42.98;102710.34;6236973;28;20228;-68
2023/05/19 10:24:45;;;;;;;8.98;2.20;;;;;;;20.09;43.22;102719.44;6243304;28;20323;-68
2023/05/19 10:28:11;;;;;;;2.08;1.90;;;;;;;20.51;42.87;102710.53;6229025;28;20247;-68
2023/05/19 10:31:35;;;;;;;1.42;1.30;;;;;;;20.32;41.94;102699.69;6243106;28;20252;-68
2023/05/19 10:35:16;;;;;;;1.50;1.38;;;;;;;20.44;42.45;102700.34;6254020;28;20256;-67
2023/05/19 10:38:42;;;;;;;3.22;1.10;;;;;;;20.88;42.21;102699.38;6240672;28;20254;-67
2023/05/19 10:42:13;;;;;;;1.77;1.40;;;;;;;20.79;42.34;102700.34;6245799;28;20255;-68
2023/05/19 10:45:41;;;;;;;2.17;1.50;;;;;;;20.91;41.86;102699.06;6235051;28;20582;-67
2023/05/19 10:49:03;;;;;;;3.42;1.67;;;;;;;20.92;42.25;102688.97;6226220;28;20236;-68
2023/05/19 10:52:28;;;;;;;6.43;1.70;;;;;;;21.48;41.99;102689.38;6226820;28;20237;-67
2023/05/19 10:55:54;;;;;;;4.47;1.63;;;;;;;21.04;40.97;102701.44;6254317;28;20591;-67
2023/05/19 10:59:31;;;;;;;1.38;1.00;;;;;;;21.17;40.74;102690.91;6243328;28;20319;-68
2023/05/19 11:02:55;;;;;;;3.35;1.20;;;;;;;21.53;40.14;102697.13;6224582;28;20236;-68
2023/05/19 11:06:27;;;;;;;2.10;1.42;;;;;;;21.87;39.65;102687.88;6237393;28;20236;-68
2023/05/19 11:09:51;;;;;;;1.80;1.20;;;;;;;22.06;38.88;102676.63;6222066;28;20540;-68
2023/05/19 11:13:19;;;;;;;3.42;2.50;;;;;;;21.45;38.86;102674.09;6228210;28;20236;-68
2023/05/19 11:16:41;;;;;;;2.05;1.50;;;;;;;21.88;38.39;102681.34;6257689;28;20223;-68
2023/05/19 11:20:05;;;;;;;2.17;0.90;;;;;;;22.22;37.39;102673.06;6243658;28;20773;-68
2023/05/19 11:23:27;;;;;;;1.88;1.00;;;;;;;22.48;37.39;102671.06;6230582;28;20251;-66
2023/05/19 11:26:48;;;;;;;4.13;2.30;;;;;;;22.48;36.54;102672.94;6240939;28;20267;-67
2023/05/19 11:30:13;;;;;;;1.95;1.15;;;;;;;22.74;36.38;102665.41;6229333;28;20237;-68
2023/05/19 11:33:34;;;;;;;1.42;1.33;;;;;;;23.06;36.14;102659.91;6254516;28;20608;-67
2023/05/19 11:36:57;;;;;;;1.40;1.00;;;;;;;23.09;34.78;102659.56;6237931;28;20229;-68
2023/05/19 11:40:21;;;;;;;3.58;1.48;;;;;;;23.65;34.80;102653.06;6241051;28;20257;-67
2023/05/19 11:43:42;;;;;;;1.15;1.02;;;;;;;23.31;35.52;102652.44;6223677;28;20221;-67
2023/05/19 11:47:03;;;;;;;3.90;1.35;;;;;;;23.83;35.16;102653.66;6246102;28;20229;-69
2023/05/19 11:50:25;;;;;;;1.63;1.23;;;;;;;24.67;34.12;102639.00;6231925;28;20255;-67
2023/05/19 11:53:49;;;;;;;1.52;0.77;;;;;;;24.15;34.61;102649.91;6220388;28;20260;-68
2023/05/19 11:57:11;;;;;;;1.85;1.58;;;;;;;24.63;34.19;102656.97;6239421;28;20507;-67
2023/05/19 12:00:36;;;;;;;2.60;1.30;;;;;;;24.88;33.69;102648.34;6224404;28;20236;-67
2023/05/19 12:03:57;;;;;;;2.65;1.20;;;;;;;24.75;33.49;102653.63;6234584;28;20221;-67
2023/05/19 12:07:21;;;;;;;4.93;1.98;;;;;;;24.01;34.16;102648.72;6242849;28;20225;-68
2023/05/19 12:10:42;;;;;;;1.55;0.90;;;;;;;23.94;34.54;102650.50;6233710;28;20237;-68
2023/05/19 12:14:05;;;;;;;1.30;0.80;;;;;;;24.95;34.47;102648.47;6233382;28;20875;-68
2023/05/19 12:17:26;;;;;;;1.88;1.17;;;;;;;25.30;32.81;102647.75;6219269;28;20363;-67
2023/05/19 12:20:47;;;;;;;1.73;1.00;;;;;;;24.38;32.02;102646.16;6246867;28;20228;-67
2023/05/19 12:24:09;;;;;;;5.68;2.35;;;;;;;25.34;32.90;102638.03;6236089;28;20326;-68
2023/05/19 12:27:30;;;;;;;0.80;0.80;;;;;;;25.69;32.66;102639.19;6223202;28;20324;-67
2023/05/19 12:30:53;;;;;;;3.67;1.20;;;;;;;26.05;32.29;102623.50;6264244;28;20326;-67
2023/05/19 12:34:14;;;;;;;4.18;0.90;;;;;;;24.31;32.80;102630.50;6239885;28;20259;-67
2023/05/19 12:37:40;;;;;;;1.60;1.00;;;;;;;24.02;33.73;102624.81;6227252;28;20390;-67
2023/05/19 12:41:01;;;;;;;3.53;1.40;;;;;;;23.69;34.35;102626.88;6240106;28;20232;-68
2023/05/19 12:44:23;;;;;;;1.52;1.35;;;;;;;24.76;34.12;102619.50;6229148;28;20232;-67
2023/05/19 12:47:48;;;;;;;1.65;1.27;;;;;;;23.70;34.23;102628.56;6226224;28;20319;-67
2023/05/19 12:51:08;;;;;;;2.25;1.60;;;;;;;22.94;35.46;102628.28;6246076;28;20637;-67
2023/05/19 12:54:33;;;;;;;1.50;1.10;;;;;;;24.98;34.43;102620.47;6227316;28;20839;-67
2023/05/19 12:57:56;;;;;;;1.10;1.00;;;;;;;28.10;30.68;102607.19;6236050;28;20227;-68
2023/05/19 13:01:18;;;;;;;1.92;1.42;;;;;;;30.26;27.23;102611.56;6245543;28;20649;-67
2023/05/19 13:04:41;;;;;;;3.03;1.23;;;;;;;30.52;26.60;102605.88;6213266;28;20232;-66
2023/05/19 13:08:05;;;;;;;1.10;0.80;;;;;;;30.72;26.08;102596.28;6227671;28;20239;-66
2023/05/19 13:11:26;;;;;;;2.75;1.35;;;;;;;32.70;25.63;102601.13;6242731;28;20319;-68
2023/05/19 13:14:46;;;;;;;2.80;1.27;;;;;;;32.67;25.34;102594.06;6225994;28;20229;-68
2023/05/19 13:18:09;;;;;;;2.58;1.17;;;;;;;29.99;26.55;102606.19;6232152;28;20314;-68
2023/05/19 13:21:32;;;;;;;5.60;0.93;;;;;;;25.87;31.15;102604.56;6250164;28;20668;-67
2023/05/19 13:24:53;;;;;;;1.17;1.00;;;;;;;24.47;33.53;102608.31;6221585;28;20602;-67
2023/05/19 13:28:14;;;;;;;1.10;1.00;;;;;;;23.22;35.21;102607.56;6219538;28;20240;-67
2023/05/19 13:31:35;;;;;;;2.38;1.52;;;;;;;23.86;35.03;102608.38;6230705;28;20240;-68
2023/05/19 13:34:56;;;;;;;0.77;0.77;;;;;;;25.90;32.53;102600.53;6219701;28;20245;-67
2023/05/19 13:38:18;;;;;;;2.00;1.20;;;;;;;28.40;29.48;102602.97;6223330;28;20881;-68
2023/05/19 13:41:39;;;;;;;2.70;2.13;;;;;;;25.96;31.82;102611.69;6245827;28;20232;-68
2023/05/19 13:45:00;;;;;;;3.25;1.15;;;;;;;27.02;31.14;102602.53;6221768;28;20253;-67
2023/05/19 13:48:21;;;;;;;2.00;1.40;;;;;;;25.41;32.47;102592.03;6237023;28;20227;-67
2023/05/19 13:51:43;;;;;;;2.08;1.75;;;;;;;27.72;31.06;102591.25;6250085;28;20240;-68
2023/05/19 13:55:06;;;;;;;1.30;0.80;;;;;;;29.29;28.83;102589.50;6239000;28;20564;-68
2023/05/19 13:58:28;;;;;;;1.10;1.00;;;;;;;26.53;30.86;102585.94;6248515;28;20223;-67
2023/05/19 14:01:48;;;;;;;3.92;1.08;;;;;;;24.60;33.66;102592.84;6236984;28;20603;-67
2023/05/19 14:05:09;;;;;;;2.53;1.15;;;;;;;24.50;33.93;102580.38;6248636;28;20279;-68
2023/05/19 14:08:31;;;;;;;2.00;1.85;;;;;;;25.68;33.19;102572.00;6251855;28;20552;-67
2023/05/19 14:11:53;;;;;;;2.60;1.38;;;;;;;25.42;32.18;102585.47;6247949;28;20232;-66
2023/05/19 14:15:14;;;;;;;2.00;1.42;;;;;;;24.25;33.88;102592.63;6247902;28;20315;-67
2023/05/19 14:18:35;;;;;;;1.40;1.10;;;;;;;23.41;35.09;102589.81;6252785;28;20778;-67
2023/05/19 14:21:56;;;;;;;1.20;1.10;;;;;;;25.18;34.00;102581.06;6241609;28;20232;-68
2023/05/19 14:25:17;;;;;;;1.92;1.55;;;;;;;25.30;32.82;102576.78;6244344;28;20232;-67
2023/05/19 14:28:39;;;;;;;2.55;1.70;;;;;;;23.45;35.25;102588.41;6233165;28;20235;-68
2023/05/19 14:32:01;;;;;;;4.60;1.98;;;;;;;22.98;36.32;102578.22;6238886;28;20228;-67
2023/05/19 14:35:22;;;;;;;2.50;1.48;;;;;;;23.24;36.22;102579.88;6247899;28;20236;-67
2023/05/19 14:38:43;;;;;;;1.10;1.00;;;;;;;23.89;35.24;102573.03;6250805;28;20318;-67
2023/05/19 14:42:04;;;;;;;5.78;2.03;;;;;;;24.12;34.86;102573.06;6234455;28;20594;-67
2023/05/19 14:45:26;;;;;;;5.88;1.17;;;;;;;23.96;34.98;102573.16;6217645;28;20232;-69
2023/05/19 14:48:47;;;;;;;2.08;1.98;;;;;;;25.28;34.09;102564.22;6240289;28;20575;-68
2023/05/19 14:52:08;;;;;;;1.60;1.20;;;;;;;24.92;34.08;102568.78;6226524;28;20370;-68
2023/05/19 14:55:28;;;;;;;2.72;1.20;;;;;;;24.08;35.31;102571.72;6237661;28;20228;-68
2023/05/19 14:58:49;;;;;;;1.00;0.88;;;;;;;23.90;36.39;102572.00;6234486;28;20767;-67
2023/05/19 15:02:12;;;;;;;1.00;1.00;;;;;;;22.64;38.09;102591.34;6237549;28;20232;-67
2023/05/19 15:05:33;;;;;;;2.05;1.67;;;;;;;22.57;38.97;102586.69;6237855;28;20646;-67
2023/05/19 15:08:54;;;;;;;2.95;0.95;;;;;;;22.70;38.66;102587.91;6235313;28;20260;-68
2023/05/19 15:12:14;;;;;;;2.35;1.15;;;;;;;22.07;39.86;102593.16;6234854;28;20228;-68
2023/05/19 15:15:35;;;;;;;1.40;0.90;;;;;;;22.50;39.46;102586.50;6234657;28;20232;-68
2023/05/19 15:18:57;;;;;;;1.15;0.95;;;;;;;22.75;39.10;102582.75;6250196;28;20365;-68
2023/05/19 15:22:18;;;;;;;2.38;1.10;;;;;;;23.16;37.91;102589.00;6226666;28;20241;-66
2023/05/19 15:25:39;;;;;;;3.30;1.67;;;;;;;23.16;38.07;102583.50;6237761;28;20236;-68
2023/05/19 15:29:00;;;;;;;0.80;0.80;;;;;;;23.33;37.74;102584.34;6233759;28;20224;-67
2023/05/19 15:32:21;;;;;;;1.27;1.05;;;;;;;23.42;37.88;102581.41;6244774;28;20321;-68
2023/05/19 15:35:43;;;;;;;1.33;1.10;;;;;;;23.73;38.37;102581.41;6236578;28;20232;-67
2023/05/19 15:39:05;;;;;;;1.88;0.75;;;;;;;22.96;38.32;102585.81;6227000;28;20236;-68
2023/05/19 15:42:26;;;;;;;2.25;0.93;;;;;;;22.58;38.45;102580.13;6222562;28;20228;-67